Terminal Aerodrome Forecast
Issued by NWS Twin Cities, MN

Home | Current Version | Previous Version | Text Only | Print | Product List | Glossary Off
Versions: 1 2 3 4 5 6 7 8 9 10 11 12 13 14 15

723
FTUS43 KMPX 210524
TAFSTC
TAF
KSTC 210524Z 2106/2206 00000KT P6SM BKN110
      TEMPO 2110/2114 3SM BR SCT005
     FM211400 VRB03KT P6SM OVC090
     FM212200 02006KT P6SM OVC030
     FM220300 03007KT P6SM OVC015=

USA.gov is the U.S. government's official web portal to all federal, state and local government web resources and services.